MAPA DE AEROPUERTO

INFORMACIÓN METAR y TAF

METAR FOR GCLA
ADDS - METARS form results

(1615 UTC 07 May 2021)
Data provider http://aviationweather.gov/metar/data/
 
METAR text: GCLA 071600Z 04006KT 350V080 9999 BKN040 22/13 Q1019
Conditions at: GCLA (LA PALMA AIRPORT, ES) observed 1600 UTC 07 May 2021
Temperature: 22.0°C (72°F)
Dewpoint: 13.0°C (55°F) [RH = 57%]
Pressure (altimeter): 30.09 inches Hg (1019.0 mb)
Winds: from the NE (40 degrees) at 7 MPH (6 knots; 3.1 m/s)
Visibility: 6 or more miles (10+ km)
Ceiling: 4000 feet AGL
Clouds: broken clouds at 4000 feet AGL
Weather: no significant weather observed at this time

METAR text: GCLA 071530Z 02006KT 340V060 9999 BKN040 23/12 Q1019
Conditions at: GCLA (LA PALMA AIRPORT, ES) observed 1530 UTC 07 May 2021
Temperature: 23.0°C (73°F)
Dewpoint: 12.0°C (54°F) [RH = 50%]
Pressure (altimeter): 30.09 inches Hg (1019.0 mb)
Winds: from the NNE (20 degrees) at 7 MPH (6 knots; 3.1 m/s)
Visibility: 6 or more miles (10+ km)
Ceiling: 4000 feet AGL
Clouds: broken clouds at 4000 feet AGL
Weather: no significant weather observed at this time

Forecast for: GCLA (LA PALMA AIRPORT, ES)
Text: TAF GCLA 071400Z 0715/0815 03009KT 9999 SCT030 TX25/0814Z TN19/0806Z
Forecast period: 1500 to 2000 UTC 07 May 2021
Forecast type: FROM: standard forecast or significant change
Winds: from the NNE (30 degrees) at 10 MPH (9 knots; 4.6 m/s)
Visibility: 6 or more miles (10+ km)
Ceiling: at least 12,000 feet AGL
Clouds: scattered clouds at 3000 feet AGL
Weather: no significant weather forecast for this period
Text: BECMG 0720/0722 31010KT
Forecast period: 2000 UTC 07 May 2021 to 1500 UTC 08 May 2021
Forecast type: BECOMING: Conditions expected to become as follows by 2200 UTC 07 May 2021
Winds: from the NW (310 degrees) at 12 MPH (10 knots; 5.1 m/s)
Visibility: 6 or more miles (10+ km)
Ceiling: at least 12,000 feet AGL
Clouds: scattered clouds at 3000 feet AGL
Weather: no significant weather forecast for this period